createdAt,value
2023-05-05T05:03:46.676Z,12.12
2023-05-05T05:08:48.361Z,12.12
2023-05-05T05:13:50.302Z,12.10
2023-05-05T05:18:51.724Z,12.09
2023-05-05T05:23:53.836Z,12.12
2023-05-05T05:28:55.640Z,12.18
2023-05-05T05:33:58.012Z,12.28
2023-05-05T05:38:59.779Z,12.38
2023-05-05T05:44:02.723Z,12.46
2023-05-05T05:49:04.745Z,12.53
2023-05-05T05:54:06.774Z,12.58
2023-05-05T05:59:10.101Z,12.63
2023-05-05T06:04:13.333Z,12.79
2023-05-05T06:09:15.117Z,12.97
2023-05-05T06:14:18.836Z,13.17
2023-05-05T06:19:22.190Z,13.36
2023-05-05T06:24:24.654Z,13.49
2023-05-05T06:29:26.628Z,13.57
2023-05-05T06:34:28.114Z,13.60
2023-05-05T06:39:29.563Z,13.65
2023-05-05T06:44:34.540Z,13.75
2023-05-05T06:49:36.460Z,13.88
2023-05-05T06:54:38.000Z,14.05
2023-05-05T06:59:39.484Z,14.23
2023-05-05T07:04:41.384Z,14.36
2023-05-05T07:09:45.121Z,14.43
2023-05-05T07:14:46.843Z,14.48
2023-05-05T07:19:48.561Z,14.57
2023-05-05T07:24:51.675Z,14.70
2023-05-05T07:29:53.211Z,14.83
2023-05-05T07:34:54.869Z,14.99
2023-05-05T07:39:56.425Z,15.18
2023-05-05T07:44:57.872Z,15.37
2023-05-05T07:49:59.439Z,15.53
2023-05-05T07:55:01.162Z,15.70
2023-05-05T08:00:03.654Z,15.87
2023-05-05T08:05:13.495Z,16.02
2023-05-05T08:10:15.098Z,16.15
2023-05-05T08:15:16.628Z,16.27
2023-05-05T08:20:19.898Z,16.40
2023-05-05T08:25:21.502Z,16.51
2023-05-05T08:30:23.114Z,16.63
2023-05-05T08:35:24.708Z,16.81
2023-05-05T08:40:31.816Z,17.04
2023-05-05T08:45:33.504Z,17.27
2023-05-05T08:50:38.576Z,17.49
2023-05-05T08:55:48.853Z,17.65
2023-05-05T09:00:51.855Z,17.81
2023-05-05T09:05:53.784Z,17.97
2023-05-05T09:10:55.739Z,18.11
2023-05-05T09:16:00.670Z,18.25
2023-05-05T09:21:18.855Z,18.39
2023-05-05T09:26:20.969Z,18.46
2023-05-05T09:31:22.534Z,18.56
2023-05-05T09:36:48.675Z,18.65
2023-05-05T09:41:50.159Z,18.73
2023-05-05T09:46:52.918Z,18.79
2023-05-05T09:51:54.899Z,18.88
2023-05-05T09:56:57.533Z,18.98
2023-05-05T10:02:11.940Z,19.12
2023-05-05T10:07:24.326Z,19.25
2023-05-05T10:12:27.393Z,19.39
2023-05-05T10:17:32.991Z,19.57
2023-05-05T10:22:35.354Z,19.66
2023-05-05T10:27:45.882Z,19.80
2023-05-05T10:33:04.134Z,19.90
2023-05-05T10:38:14.040Z,20.05
2023-05-05T10:43:15.707Z,20.18
2023-05-05T10:48:39.857Z,20.40
2023-05-05T10:54:06.977Z,20.61
2023-05-05T10:59:36.701Z,20.89
2023-05-05T11:04:38.258Z,20.98
2023-05-05T11:09:55.680Z,21.14
2023-05-05T11:15:31.033Z,21.29
2023-05-05T11:20:43.385Z,21.43
2023-05-05T11:25:45.236Z,21.57
2023-05-05T11:30:56.174Z,21.72
2023-05-05T11:35:59.103Z,21.73
2023-05-05T11:41:10.926Z,21.65
2023-05-05T11:46:13.994Z,21.64
2023-05-05T11:51:17.138Z,21.67
2023-05-05T11:56:24.784Z,21.75
2023-05-05T12:01:26.630Z,21.81
2023-05-05T12:06:32.097Z,21.89
2023-05-05T12:11:33.609Z,21.98
2023-05-05T12:16:35.220Z,22.16
2023-05-05T12:21:36.748Z,22.31
2023-05-05T12:26:38.248Z,22.50
2023-05-05T12:31:42.329Z,22.71
2023-05-05T12:36:44.362Z,22.79
2023-05-05T12:41:46.383Z,22.89
2023-05-05T12:46:49.053Z,22.98
2023-05-05T12:51:55.612Z,23.09
2023-05-05T12:56:57.269Z,23.18
2023-05-05T13:02:02.344Z,23.53
2023-05-05T13:07:12.239Z,24.54
2023-05-05T13:12:14.822Z,25.58
2023-05-05T13:17:16.900Z,26.05
2023-05-05T13:22:18.401Z,25.89
2023-05-05T13:27:20.206Z,25.69
2023-05-05T13:32:21.536Z,25.19
2023-05-05T13:37:23.085Z,24.65
2023-05-05T13:42:24.609Z,24.25
2023-05-05T13:47:26.118Z,24.01
2023-05-05T13:52:27.734Z,23.86
2023-05-05T13:57:30.045Z,23.80
2023-05-05T14:02:31.602Z,23.93
2023-05-05T14:07:33.193Z,24.01
2023-05-05T14:12:34.676Z,24.10
2023-05-05T14:17:36.187Z,24.13
2023-05-05T14:22:37.914Z,24.11
2023-05-05T14:27:39.640Z,24.13
2023-05-05T14:32:41.123Z,24.08
2023-05-05T14:37:42.589Z,24.06
2023-05-05T14:42:44.093Z,24.03
2023-05-05T14:47:45.624Z,23.83
2023-05-05T14:52:47.107Z,23.72
2023-05-05T14:57:48.555Z,23.55
2023-05-05T15:02:50.127Z,23.63
2023-05-05T15:07:51.494Z,23.94
2023-05-05T15:12:53.104Z,24.24
2023-05-05T15:17:54.531Z,24.52
2023-05-05T15:22:56.186Z,24.44
2023-05-05T15:27:58.766Z,24.39
2023-05-05T15:33:00.457Z,24.34
2023-05-05T15:38:03.449Z,24.25
2023-05-05T15:43:05.235Z,24.02
2023-05-05T15:48:07.468Z,23.76
2023-05-05T15:53:08.935Z,23.58
2023-05-05T15:58:10.600Z,23.44
2023-05-05T16:03:12.106Z,23.36
2023-05-05T16:08:13.776Z,23.22
2023-05-05T16:13:15.694Z,23.08
2023-05-05T16:18:17.206Z,22.98
2023-05-05T16:23:18.704Z,22.89
2023-05-05T16:28:20.166Z,22.80
2023-05-05T16:33:22.606Z,22.64
2023-05-05T16:38:24.161Z,22.42
2023-05-05T16:43:25.736Z,22.19
2023-05-05T16:48:27.338Z,22.02
2023-05-05T16:53:29.035Z,21.85
2023-05-05T16:58:30.492Z,21.70
2023-05-05T17:03:32.042Z,21.58
2023-05-05T17:08:33.521Z,21.49
2023-05-05T17:14:00.572Z,21.39
2023-05-05T17:19:02.097Z,21.29
2023-05-05T17:24:03.767Z,21.17
2023-05-05T17:29:05.367Z,21.10
2023-05-05T17:34:06.856Z,21.01
2023-05-05T17:39:10.365Z,20.93
2023-05-05T17:44:11.792Z,20.86
2023-05-05T17:49:13.240Z,20.77
2023-05-05T17:54:14.735Z,20.68
2023-05-05T17:59:16.197Z,20.56
2023-05-05T18:04:17.682Z,20.42
2023-05-05T18:09:20.602Z,20.30
2023-05-05T18:14:25.036Z,20.20
2023-05-05T18:19:26.699Z,20.13
2023-05-05T18:24:28.348Z,20.07
2023-05-05T18:29:29.901Z,20.01
2023-05-05T18:34:31.787Z,19.96
2023-05-05T18:39:33.307Z,19.89
2023-05-05T18:44:35.548Z,19.82
2023-05-05T18:49:37.422Z,19.76
2023-05-05T18:54:38.881Z,19.71
2023-05-05T18:59:40.460Z,19.64
2023-05-05T19:04:42.177Z,19.54
2023-05-05T19:09:43.646Z,19.47
2023-05-05T19:14:45.312Z,19.38
2023-05-05T19:19:46.769Z,19.31
2023-05-05T19:24:48.308Z,19.23
2023-05-05T19:29:52.251Z,19.17
2023-05-05T19:34:54.403Z,19.05
2023-05-05T19:39:56.377Z,18.92
2023-05-05T19:44:58.118Z,18.85
2023-05-05T19:49:59.669Z,18.78
2023-05-05T19:55:01.560Z,18.72
2023-05-05T20:00:03.707Z,18.66
2023-05-05T20:05:06.311Z,18.64
2023-05-05T20:10:09.042Z,18.57
2023-05-05T20:15:11.388Z,18.52
2023-05-05T20:20:16.956Z,18.49
2023-05-05T20:25:18.588Z,18.43
2023-05-05T20:30:20.392Z,18.36
2023-05-05T20:35:21.892Z,18.28
2023-05-05T20:40:23.330Z,18.23
2023-05-05T20:45:25.645Z,18.18
2023-05-05T20:50:27.013Z,18.14
2023-05-05T20:55:28.579Z,18.11
2023-05-05T21:00:30.116Z,18.09
2023-05-05T21:05:31.740Z,18.09
2023-05-05T21:10:33.678Z,18.08
2023-05-05T21:15:38.356Z,18.07
2023-05-05T21:20:39.817Z,18.05
2023-05-05T21:25:41.393Z,18.03
2023-05-05T21:30:42.857Z,17.99
2023-05-05T21:35:44.322Z,17.98
2023-05-05T21:40:45.906Z,17.94
2023-05-05T21:45:47.368Z,17.87
2023-05-05T21:50:48.880Z,17.84
2023-05-05T21:55:50.481Z,17.78
